createdAt,value
2018-10-09T00:02:00.496Z,101743.62
2018-10-09T00:04:28.140Z,101746.89
2018-10-09T00:06:54.785Z,101732.64
2018-10-09T00:09:21.472Z,101730.71
2018-10-09T00:11:48.116Z,101733.97
2018-10-09T00:14:14.785Z,101735.80
2018-10-09T00:16:41.439Z,101738.09
2018-10-09T00:19:09.477Z,101724.69
2018-10-09T00:21:36.176Z,101725.05
2018-10-09T00:24:03.729Z,101725.63
2018-10-09T00:26:30.412Z,101728.56
2018-10-09T00:28:57.054Z,101716.83
2018-10-09T00:31:23.721Z,101719.88
2018-10-09T00:33:50.406Z,101721.75
2018-10-09T00:36:17.362Z,101716.59
2018-10-09T00:38:44.009Z,101710.95
2018-10-09T00:41:10.668Z,101698.75
2018-10-09T00:43:39.532Z,101700.56
2018-10-09T00:46:06.226Z,101699.50
2018-10-09T00:48:32.899Z,101703.09
2018-10-09T00:51:00.349Z,101711.91
2018-10-09T00:53:28.017Z,101711.66
2018-10-09T00:55:55.593Z,101701.41
2018-10-09T00:58:23.252Z,101705.02
2018-10-09T01:00:51.008Z,101697.21
2018-10-09T01:03:18.476Z,101690.44
2018-10-09T01:05:45.148Z,101688.61
2018-10-09T01:08:11.796Z,101683.66
2018-10-09T01:10:39.421Z,101683.09
2018-10-09T01:13:06.091Z,101684.77
2018-10-09T01:15:32.836Z,101688.48
2018-10-09T01:17:59.488Z,101678.97
2018-10-09T01:20:27.055Z,101684.02
2018-10-09T01:22:53.740Z,101679.95
2018-10-09T01:25:20.383Z,101693.30
2018-10-09T01:27:47.036Z,101697.19
2018-10-09T01:30:13.681Z,101701.05
2018-10-09T01:32:40.700Z,101704.41
2018-10-09T01:35:09.444Z,101703.00
2018-10-09T01:37:37.079Z,101697.89
2018-10-09T01:40:04.632Z,101690.15
2018-10-09T01:42:32.184Z,101695.09
2018-10-09T01:44:58.860Z,101693.89
2018-10-09T01:47:26.516Z,101697.14
2018-10-09T01:49:53.184Z,101700.90
2018-10-09T01:52:19.843Z,101709.60
2018-10-09T01:54:47.476Z,101701.05
2018-10-09T01:57:14.961Z,101705.52
2018-10-09T01:59:42.655Z,101703.35
2018-10-09T02:02:10.265Z,101709.36
2018-10-09T02:04:38.175Z,101700.83
2018-10-09T02:07:05.177Z,101695.72
2018-10-09T02:09:31.894Z,101692.80
2018-10-09T02:11:59.487Z,101697.67
2018-10-09T02:14:27.120Z,101699.36
2018-10-09T02:16:54.680Z,101704.89
2018-10-09T02:19:21.384Z,101708.88
2018-10-09T02:21:49.069Z,101702.37
2018-10-09T02:24:16.593Z,101700.32
2018-10-09T02:26:44.221Z,101695.59
2018-10-09T02:29:11.820Z,101693.07
2018-10-09T02:31:39.904Z,101694.39
2018-10-09T02:34:09.836Z,101694.97
2018-10-09T02:36:39.637Z,101704.37
2018-10-09T02:39:09.241Z,101702.18
2018-10-09T02:41:38.140Z,101713.02
2018-10-09T02:44:05.740Z,101726.69
2018-10-09T02:46:32.420Z,101720.66
2018-10-09T02:48:59.936Z,101720.30
2018-10-09T02:51:27.480Z,101723.77
2018-10-09T02:53:54.199Z,101726.30
2018-10-09T02:56:21.779Z,101730.91
2018-10-09T02:58:48.694Z,101727.41
2018-10-09T03:01:15.764Z,101735.70
2018-10-09T03:03:43.416Z,101738.83
2018-10-09T03:06:10.652Z,101733.67
2018-10-09T03:08:38.511Z,101733.17
2018-10-09T03:11:05.905Z,101723.14
2018-10-09T03:13:33.592Z,101734.34
2018-10-09T03:16:01.279Z,101728.69
2018-10-09T03:18:28.876Z,101721.72
2018-10-09T03:20:55.524Z,101716.17
2018-10-09T03:23:23.141Z,101718.80
2018-10-09T03:25:49.792Z,101718.08
2018-10-09T03:28:17.476Z,101711.45
2018-10-09T03:30:45.152Z,101715.04
2018-10-09T03:33:12.809Z,101711.19
2018-10-09T03:35:40.365Z,101713.86
2018-10-09T03:38:10.176Z,101711.33
2018-10-09T03:40:37.653Z,101712.15
2018-10-09T03:43:04.331Z,101714.32
2018-10-09T03:45:31.046Z,101711.31
2018-10-09T03:47:57.719Z,101724.44
2018-10-09T03:50:24.648Z,101713.50
2018-10-09T03:52:51.309Z,101715.04
2018-10-09T03:55:17.958Z,101708.89
2018-10-09T03:57:44.641Z,101705.06
2018-10-09T04:00:11.316Z,101708.80
2018-10-09T04:02:40.192Z,101700.94
2018-10-09T04:05:07.680Z,101707.19
2018-10-09T04:07:35.288Z,101705.77
2018-10-09T04:10:02.944Z,101704.92
2018-10-09T04:12:30.565Z,101704.83
2018-10-09T04:14:58.183Z,101706.52
2018-10-09T04:17:25.873Z,101711.33
2018-10-09T04:19:53.502Z,101714.20
2018-10-09T04:22:22.357Z,101714.25
2018-10-09T04:24:49.304Z,101710.12
2018-10-09T04:27:17.139Z,101707.84
2018-10-09T04:29:45.120Z,101708.88
2018-10-09T04:32:12.567Z,101710.08
2018-10-09T04:34:41.813Z,101703.98
2018-10-09T04:37:10.504Z,101708.05
2018-10-09T04:39:39.298Z,101708.53
2018-10-09T04:42:09.548Z,101707.36
2018-10-09T04:44:37.196Z,101713.62
2018-10-09T04:47:04.683Z,101710.64
2018-10-09T04:49:32.397Z,101710.37
2018-10-09T04:51:59.977Z,101718.80
2018-10-09T04:54:27.696Z,101726.52
2018-10-09T04:56:55.140Z,101719.02
2018-10-09T04:59:22.898Z,101726.25
2018-10-09T05:01:50.604Z,101716.00
2018-10-09T05:04:17.321Z,101716.00
2018-10-09T05:06:44.812Z,101706.64
2018-10-09T05:09:12.501Z,101710.37
2018-10-09T05:11:41.481Z,101704.29
2018-10-09T05:14:10.068Z,101701.49
2018-10-09T05:16:39.696Z,101710.38
2018-10-09T05:19:06.360Z,101704.05
2018-10-09T05:21:34.270Z,101721.28
2018-10-09T05:24:03.944Z,101726.61
2018-10-09T05:26:31.616Z,101720.11
2018-10-09T05:28:58.428Z,101714.17
2018-10-09T05:31:25.158Z,101721.09
2018-10-09T05:33:51.760Z,101731.82
2018-10-09T05:36:18.420Z,101737.36
2018-10-09T05:38:45.060Z,101743.69
2018-10-09T05:41:11.760Z,101745.37
2018-10-09T05:43:39.815Z,101742.99
2018-10-09T05:46:08.149Z,101755.34
2018-10-09T05:48:35.812Z,101751.70
2018-10-09T05:51:02.572Z,101756.52
2018-10-09T05:53:30.061Z,101762.06
2018-10-09T05:55:57.683Z,101766.94
2018-10-09T05:58:25.185Z,101759.83
2018-10-09T06:00:51.978Z,101765.47
2018-10-09T06:03:18.641Z,101768.12
2018-10-09T06:05:46.193Z,101766.88
2018-10-09T06:08:13.820Z,101762.75
2018-10-09T06:10:41.289Z,101768.33
2018-10-09T06:13:09.980Z,101768.38
2018-10-09T06:15:36.729Z,101765.73
2018-10-09T06:18:03.381Z,101761.42
2018-10-09T06:20:30.025Z,101770.62
2018-10-09T06:22:57.608Z,101781.43
2018-10-09T06:25:24.272Z,101791.46
2018-10-09T06:27:50.982Z,101790.25
2018-10-09T06:30:17.652Z,101788.05
2018-10-09T06:32:44.280Z,101792.39
2018-10-09T06:35:10.916Z,101792.19
2018-10-09T06:37:39.640Z,101799.30
2018-10-09T06:40:08.127Z,101793.81
2018-10-09T06:42:34.831Z,101780.77
2018-10-09T06:45:01.490Z,101777.63
2018-10-09T06:47:28.267Z,101780.86
2018-10-09T06:49:55.753Z,101786.52
2018-10-09T06:52:23.651Z,101795.05
2018-10-09T06:54:51.292Z,101787.09
2018-10-09T06:57:18.912Z,101785.34
2018-10-09T06:59:45.711Z,101780.14
2018-10-09T07:02:12.365Z,101787.52
2018-10-09T07:04:39.908Z,101794.30
2018-10-09T07:07:09.547Z,101794.87
2018-10-09T07:09:36.184Z,101793.03
2018-10-09T07:12:02.830Z,101795.44
2018-10-09T07:14:29.573Z,101802.80
2018-10-09T07:16:56.284Z,101802.58
2018-10-09T07:19:23.993Z,101805.59
2018-10-09T07:22:02.162Z,101800.14
2018-10-09T07:24:29.897Z,101800.26
2018-10-09T07:26:57.361Z,101800.83
2018-10-09T07:29:24.838Z,101805.32
2018-10-09T07:31:52.297Z,101809.14
2018-10-09T07:34:19.917Z,101807.09
2018-10-09T07:36:47.405Z,101811.92
2018-10-09T07:39:15.060Z,101815.33
2018-10-09T07:41:42.899Z,101813.91
2018-10-09T07:44:10.534Z,101808.78
2018-10-09T07:46:40.421Z,101813.76
2018-10-09T07:49:10.285Z,101813.52
2018-10-09T07:51:39.645Z,101817.09
2018-10-09T07:54:08.318Z,101821.86
2018-10-09T07:56:35.949Z,101824.52
2018-10-09T07:59:03.648Z,101830.52
2018-10-09T08:01:31.181Z,101838.86
2018-10-09T08:03:58.808Z,101841.18
2018-10-09T08:06:25.962Z,101844.04
2018-10-09T08:08:53.542Z,101839.80
2018-10-09T08:11:20.268Z,101845.03
2018-10-09T08:13:47.842Z,101848.69
2018-10-09T08:16:14.582Z,101848.89
2018-10-09T08:18:42.070Z,101856.64
2018-10-09T08:21:09.432Z,101854.50
2018-10-09T08:23:38.313Z,101853.69
2018-10-09T08:26:05.802Z,101858.50
2018-10-09T08:28:33.405Z,101862.48
2018-10-09T08:31:00.963Z,101856.25
2018-10-09T08:33:28.625Z,101858.32
2018-10-09T08:35:56.097Z,101857.69
2018-10-09T08:38:23.729Z,101862.25
2018-10-09T08:40:51.360Z,101855.16
2018-10-09T08:43:18.969Z,101854.46
2018-10-09T08:45:46.578Z,101855.58
2018-10-09T08:48:14.284Z,101852.53
2018-10-09T08:50:41.884Z,101852.78
2018-10-09T08:53:10.317Z,101855.30
2018-10-09T08:55:40.021Z,101869.30
2018-10-09T08:58:09.717Z,101874.15
2018-10-09T09:00:38.217Z,101869.78
2018-10-09T09:03:05.750Z,101874.15
2018-10-09T09:05:33.410Z,101877.22
2018-10-09T09:08:01.053Z,101882.17
2018-10-09T09:10:28.650Z,101886.03
2018-10-09T09:12:55.346Z,101888.34
2018-10-09T09:15:22.148Z,101888.95
2018-10-09T09:17:48.810Z,101888.74
2018-10-09T09:20:15.484Z,101890.91
2018-10-09T09:22:42.237Z,101891.78
2018-10-09T09:25:10.380Z,101898.35
2018-10-09T09:27:37.898Z,101891.93
2018-10-09T09:30:05.014Z,101895.13
2018-10-09T09:32:32.537Z,101895.28
2018-10-09T09:34:59.213Z,101890.33
2018-10-09T09:37:26.661Z,101891.57
2018-10-09T09:39:53.361Z,101895.79
2018-10-09T09:42:20.042Z,101900.73
2018-10-09T09:44:46.697Z,101893.62
2018-10-09T09:47:13.390Z,101901.73
2018-10-09T09:49:41.061Z,101903.47
2018-10-09T09:54:35.134Z,101913.30
2018-10-09T09:57:01.854Z,101910.40
2018-10-09T09:59:28.533Z,101911.23
2018-10-09T10:01:55.333Z,101910.76
2018-10-09T10:04:22.003Z,101907.38
2018-10-09T10:06:48.663Z,101903.06
2018-10-09T10:09:15.354Z,101905.98
2018-10-09T10:11:42.202Z,101898.11
2018-10-09T10:14:10.041Z,101898.81
2018-10-09T10:16:39.364Z,101901.02
2018-10-09T10:19:08.178Z,101897.27
2018-10-09T10:21:35.849Z,101890.15
2018-10-09T10:24:03.402Z,101894.41
2018-10-09T10:26:31.025Z,101887.14
2018-10-09T10:28:58.739Z,101880.16
2018-10-09T10:31:26.351Z,101879.19
2018-10-09T10:33:53.920Z,101879.45
2018-10-09T10:36:21.453Z,101878.25
2018-10-09T10:38:49.107Z,101879.94
2018-10-09T10:41:16.663Z,101884.75
2018-10-09T10:43:44.336Z,101880.28
2018-10-09T10:46:11.886Z,101878.47
2018-10-09T10:48:45.321Z,101884.98
2018-10-09T10:51:12.969Z,101883.78
2018-10-09T10:53:40.681Z,101881.97
2018-10-09T10:56:09.906Z,101884.41
2018-10-09T10:58:40.089Z,101874.72
2018-10-09T11:01:08.149Z,101882.23
2018-10-09T11:03:35.805Z,101875.83
2018-10-09T11:06:03.362Z,101873.54
2018-10-09T11:08:31.076Z,101871.37
2018-10-09T11:10:57.661Z,101866.90
2018-10-09T11:13:25.308Z,101866.07
2018-10-09T11:15:52.950Z,101868.51
2018-10-09T11:18:20.537Z,101860.54
2018-10-09T11:20:48.245Z,101853.55
2018-10-09T11:23:15.904Z,101850.05
2018-10-09T11:25:43.510Z,101844.13
2018-10-09T11:28:11.224Z,101843.91
2018-10-09T11:30:43.212Z,101837.27
2018-10-09T11:33:11.068Z,101837.39
2018-10-09T11:35:39.501Z,101836.28
2018-10-09T11:38:06.959Z,101834.61
2018-10-09T11:40:34.301Z,101830.98
2018-10-09T11:43:00.974Z,101828.59
2018-10-09T11:45:27.692Z,101832.58
2018-10-09T11:47:54.360Z,101826.52
2018-10-09T11:50:21.148Z,101820.76
2018-10-09T11:52:47.817Z,101823.77
2018-10-09T11:55:14.504Z,101830.41
2018-10-09T11:57:41.205Z,101831.83
2018-10-09T12:00:10.161Z,101834.88
2018-10-09T12:02:37.407Z,101827.49
2018-10-09T12:05:04.993Z,101826.30
2018-10-09T12:07:32.682Z,101826.87
2018-10-09T12:10:00.264Z,101822.89
2018-10-09T12:12:27.309Z,101827.85
2018-10-09T12:14:54.949Z,101824.74
2018-10-09T12:17:22.901Z,101828.24
2018-10-09T12:19:50.518Z,101826.16
2018-10-09T12:22:17.174Z,101830.98
2018-10-09T12:24:44.659Z,101825.45
2018-10-09T12:27:12.238Z,101822.89
2018-10-09T12:29:40.685Z,101825.55
2018-10-09T12:32:09.868Z,101824.22
2018-10-09T12:34:39.820Z,101823.50
2018-10-09T12:37:08.249Z,101823.14
2018-10-09T12:39:35.901Z,101816.98
2018-10-09T12:42:03.540Z,101819.52
2018-10-09T12:44:31.121Z,101824.97
2018-10-09T12:46:58.731Z,101817.84
2018-10-09T12:49:26.405Z,101816.16
2018-10-09T12:51:53.922Z,101822.80
2018-10-09T12:54:21.401Z,101813.37
2018-10-09T12:56:48.973Z,101812.87
2018-10-09T12:59:16.576Z,101813.72
2018-10-09T13:01:44.125Z,101814.92
2018-10-09T13:04:11.629Z,101806.73
2018-10-09T13:06:40.365Z,101799.37
2018-10-09T13:09:11.125Z,101807.92
2018-10-09T13:11:41.223Z,101806.73
2018-10-09T13:14:10.213Z,101804.91
2018-10-09T13:16:39.473Z,101808.41
2018-10-09T13:19:07.021Z,101809.38
2018-10-09T13:21:35.634Z,101808.05
2018-10-09T13:24:02.933Z,101796.82
2018-10-09T13:26:30.568Z,101792.13
2018-10-09T13:28:58.238Z,101796.95
2018-10-09T13:31:25.615Z,101790.80
2018-10-09T13:33:53.146Z,101787.64
2018-10-09T13:36:20.641Z,101784.86
2018-10-09T13:38:47.313Z,101780.75
2018-10-09T13:41:14.050Z,101782.95
2018-10-09T13:43:40.702Z,101774.24
2018-10-09T13:46:10.109Z,101777.26
2018-10-09T13:48:36.817Z,101779.06
2018-10-09T13:51:04.273Z,101780.75
2018-10-09T13:53:31.781Z,101770.62
2018-10-09T13:55:59.330Z,101772.69
2018-10-09T13:58:26.810Z,101763.98
2018-10-09T14:00:54.442Z,101771.59
2018-10-09T14:03:22.242Z,101765.31
2018-10-09T14:05:49.841Z,101762.30
2018-10-09T14:08:17.369Z,101764.72
2018-10-09T14:10:44.925Z,101760.13
2018-10-09T14:13:12.509Z,101759.91
2018-10-09T14:15:41.536Z,101751.67
2018-10-09T14:18:10.617Z,101752.77
2018-10-09T14:20:39.637Z,101752.28
2018-10-09T14:23:09.537Z,101750.22
2018-10-09T14:25:37.037Z,101743.48
2018-10-09T14:28:05.373Z,101735.03
2018-10-09T14:30:32.901Z,101731.53
2018-10-09T14:33:00.504Z,101727.42
2018-10-09T14:35:28.116Z,101723.08
2018-10-09T14:37:55.849Z,101727.64
2018-10-09T14:40:23.367Z,101723.80
2018-10-09T14:42:50.956Z,101712.81
2018-10-09T14:45:18.557Z,101712.33
2018-10-09T14:47:45.253Z,101715.95
2018-10-09T14:50:12.866Z,101711.75
2018-10-09T14:52:41.546Z,101713.08
2018-10-09T14:55:10.338Z,101706.30
2018-10-09T14:57:39.849Z,101704.62
2018-10-09T15:00:10.001Z,101708.12
2018-10-09T15:02:38.369Z,101712.95
2018-10-09T15:05:06.004Z,101717.28
2018-10-09T15:07:34.896Z,101715.24
2018-10-09T15:10:02.343Z,101716.57
2018-10-09T15:12:30.001Z,101711.61
2018-10-09T15:14:57.624Z,101714.98
2018-10-09T15:17:24.330Z,101715.47
2018-10-09T15:19:52.087Z,101718.61
2018-10-09T15:22:19.588Z,101724.05
2018-10-09T15:24:47.154Z,101724.05
2018-10-09T15:27:14.674Z,101714.86
2018-10-09T15:29:41.435Z,101718.00
2018-10-09T15:32:10.521Z,101726.70
2018-10-09T15:34:38.434Z,101730.08
2018-10-09T15:37:05.131Z,101728.87
2018-10-09T15:39:31.788Z,101739.14
2018-10-09T15:41:59.261Z,101737.81
2018-10-09T15:44:25.976Z,101741.18
2018-10-09T15:46:52.640Z,101746.00
2018-10-09T15:49:19.356Z,101745.75
2018-10-09T15:51:45.992Z,101748.30
2018-10-09T15:54:12.909Z,101754.33
2018-10-09T15:56:40.574Z,101749.02
2018-10-09T15:59:07.849Z,101750.70
2018-10-09T16:01:34.530Z,101746.09
2018-10-09T16:04:02.132Z,101747.91
2018-10-09T16:06:29.593Z,101751.45
2018-10-09T16:08:57.286Z,101755.92
2018-10-09T16:11:24.044Z,101759.55
2018-10-09T16:13:51.773Z,101764.86
2018-10-09T16:16:19.232Z,101766.67
2018-10-09T16:18:47.152Z,101769.55
2018-10-09T16:21:14.816Z,101772.08
2018-10-09T16:23:42.717Z,101767.73
2018-10-09T16:26:10.300Z,101766.67
2018-10-09T16:28:39.292Z,101764.23
2018-10-09T16:31:06.796Z,101765.21
2018-10-09T16:33:34.454Z,101759.16
2018-10-09T16:36:02.129Z,101755.79
2018-10-09T16:38:29.686Z,101758.44
2018-10-09T16:40:56.312Z,101761.33
2018-10-09T16:43:23.753Z,101767.02
2018-10-09T16:45:51.333Z,101768.80
2018-10-09T16:48:19.035Z,101777.78
2018-10-09T16:50:46.494Z,101780.18
2018-10-09T16:53:14.569Z,101780.44
2018-10-09T16:55:41.828Z,101781.64
2018-10-09T16:58:10.216Z,101787.21
2018-10-09T17:00:39.621Z,101789.25
2018-10-09T17:03:07.157Z,101785.00
2018-10-09T17:05:34.560Z,101785.70
2018-10-09T17:08:01.998Z,101790.04
2018-10-09T17:10:28.691Z,101794.02
2018-10-09T17:12:56.253Z,101792.33
2018-10-09T17:15:23.011Z,101795.95
2018-10-09T17:17:50.630Z,101791.20
2018-10-09T17:20:18.265Z,101798.43
2018-10-09T17:22:45.956Z,101798.47
2018-10-09T17:25:13.448Z,101796.67
2018-10-09T17:27:42.373Z,101796.05
2018-10-09T17:30:11.421Z,101803.67
2018-10-09T17:32:39.669Z,101804.51
2018-10-09T17:35:09.957Z,101809.59
2018-10-09T17:37:38.582Z,101804.38
2018-10-09T17:40:06.194Z,101805.84
2018-10-09T17:42:33.926Z,101809.72
2018-10-09T17:45:02.520Z,101812.86
2018-10-09T17:47:30.140Z,101814.19
2018-10-09T17:49:57.819Z,101813.72
2018-10-09T17:52:24.536Z,101809.73
2018-10-09T17:54:51.953Z,101815.52
2018-10-09T17:57:18.654Z,101819.86
2018-10-09T17:59:45.302Z,101818.41
2018-10-09T18:02:12.872Z,101818.53
2018-10-09T18:04:40.525Z,101815.03
2018-10-09T18:07:07.204Z,101814.28
2018-10-09T18:09:34.545Z,101821.42
2018-10-09T18:12:01.209Z,101819.02
2018-10-09T18:14:27.898Z,101816.09
2018-10-09T18:16:54.548Z,101815.61
2018-10-09T18:19:21.193Z,101814.19
2018-10-09T18:21:47.964Z,101811.53
2018-10-09T18:24:14.684Z,101810.66
2018-10-09T18:26:41.350Z,101814.06
2018-10-09T18:29:10.362Z,101810.31
2018-10-09T18:31:37.020Z,101809.72
2018-10-09T18:34:03.693Z,101807.16
2018-10-09T18:36:30.402Z,101808.00
2018-10-09T18:38:57.033Z,101809.59
2018-10-09T18:41:24.673Z,101807.41
2018-10-09T18:43:51.437Z,101804.77
2018-10-09T18:46:18.098Z,101810.30
2018-10-09T18:48:44.772Z,101807.16
2018-10-09T18:51:11.433Z,101808.00
2018-10-09T18:53:39.601Z,101807.55
2018-10-09T18:56:08.023Z,101813.08
2018-10-09T18:58:36.174Z,101808.26
2018-10-09T19:01:02.943Z,101815.73
2018-10-09T19:03:30.893Z,101813.56
2018-10-09T19:05:57.605Z,101817.64
2018-10-09T19:08:25.397Z,101813.66
2018-10-09T19:10:52.293Z,101817.28
2018-10-09T19:13:19.942Z,101817.91
2018-10-09T19:15:47.615Z,101816.09
2018-10-09T19:18:15.160Z,101813.08
2018-10-09T19:20:41.824Z,101815.61
2018-10-09T19:23:10.662Z,101818.27
2018-10-09T19:25:38.297Z,101816.70
2018-10-09T19:28:05.050Z,101820.30
2018-10-09T19:30:31.858Z,101817.19
2018-10-09T19:32:58.569Z,101818.88
2018-10-09T19:35:26.144Z,101818.03
2018-10-09T19:37:52.843Z,101818.97
2018-10-09T19:40:20.477Z,101824.89
2018-10-09T19:42:48.090Z,101820.08
2018-10-09T19:45:15.225Z,101818.39
2018-10-09T19:47:43.000Z,101817.90
2018-10-09T19:50:11.049Z,101821.17
2018-10-09T19:52:40.125Z,101820.78
2018-10-09T19:55:06.796Z,101823.56
2018-10-09T19:57:34.474Z,101828.75
2018-10-09T20:00:02.036Z,101826.44
2018-10-09T20:02:29.717Z,101829.23
2018-10-09T20:04:56.456Z,101824.53
2018-10-09T20:07:24.154Z,101828.88
2018-10-09T20:09:50.809Z,101828.38
2018-10-09T20:12:17.549Z,101823.41
2018-10-09T20:14:44.194Z,101824.47
2018-10-09T20:17:11.759Z,101823.14
2018-10-09T20:19:42.186Z,101824.45
2018-10-09T20:22:11.172Z,101825.12
2018-10-09T20:24:39.717Z,101825.78
2018-10-09T20:27:09.794Z,101825.22
2018-10-09T20:29:40.241Z,101832.70
2018-10-09T20:32:10.480Z,101835.58
2018-10-09T20:34:40.296Z,101835.59
2018-10-09T20:37:10.463Z,101839.57
2018-10-09T20:39:37.102Z,101840.39
2018-10-09T20:44:31.706Z,101842.62
2018-10-09T20:46:59.208Z,101839.07
2018-10-09T20:49:25.880Z,101839.70
2018-10-09T20:51:53.427Z,101835.45
2018-10-09T20:54:20.066Z,101834.52
2018-10-09T20:56:46.706Z,101842.96
2018-10-09T20:59:13.341Z,101842.62
2018-10-09T21:01:41.084Z,101843.74
2018-10-09T21:04:08.308Z,101844.67
2018-10-09T21:06:35.860Z,101841.68
2018-10-09T21:09:02.660Z,101842.91
2018-10-09T21:11:29.305Z,101843.00
2018-10-09T21:13:55.957Z,101841.19
2018-10-09T21:16:22.632Z,101838.30
2018-10-09T21:18:49.273Z,101839.01
2018-10-09T21:21:15.936Z,101845.42
2018-10-09T21:23:42.582Z,101840.12
2018-10-09T21:26:11.145Z,101842.64
2018-10-09T21:28:39.865Z,101844.95
2018-10-09T21:31:06.520Z,101842.14
2018-10-09T21:33:34.208Z,101843.96
2018-10-09T21:36:01.813Z,101840.07
2018-10-09T21:38:29.446Z,101842.98
2018-10-09T21:40:57.121Z,101841.63
2018-10-09T21:43:24.862Z,101846.45
2018-10-09T21:45:52.506Z,101851.02
2018-10-09T21:48:20.234Z,101847.39
2018-10-09T21:53:14.441Z,101847.80
2018-10-09T21:55:41.085Z,101853.25
2018-10-09T21:58:10.310Z,101859.53
2018-10-09T22:00:43.661Z,101858.20
2018-10-09T22:05:37.328Z,101857.31
2018-10-09T22:08:05.512Z,101855.89
2018-10-09T22:10:33.164Z,101857.58
2018-10-09T22:13:00.880Z,101857.81
2018-10-09T22:15:28.548Z,101860.59
2018-10-09T22:17:56.213Z,101860.37
2018-10-09T22:20:23.682Z,101862.88
2018-10-09T22:22:50.328Z,101857.72
2018-10-09T22:25:17.872Z,101857.67
2018-10-09T22:30:12.618Z,101855.84
2018-10-09T22:32:41.730Z,101854.30
2018-10-09T22:35:10.641Z,101857.67
2018-10-09T22:37:39.689Z,101856.23
2018-10-09T22:40:07.308Z,101858.27
2018-10-09T22:42:35.113Z,101858.40
2018-10-09T22:45:02.553Z,101860.81
2018-10-09T22:47:30.160Z,101863.59
2018-10-09T22:49:56.818Z,101857.08
2018-10-09T22:54:50.916Z,101859.34
2018-10-09T22:57:18.351Z,101861.63
2018-10-09T22:59:45.961Z,101860.78
2018-10-09T23:02:12.693Z,101860.78
2018-10-09T23:04:41.656Z,101862.04
2018-10-09T23:07:09.505Z,101866.09
2018-10-09T23:09:37.108Z,101859.73
2018-10-09T23:12:04.575Z,101866.02
2018-10-09T23:14:32.129Z,101868.89
2018-10-09T23:16:59.794Z,101862.38
2018-10-09T23:19:27.329Z,101864.77
2018-10-09T23:21:54.980Z,101860.78
2018-10-09T23:24:22.536Z,101858.55
2018-10-09T23:26:50.079Z,101861.29
2018-10-09T23:29:17.793Z,101859.27
2018-10-09T23:31:45.293Z,101858.88
2018-10-09T23:36:39.435Z,101861.90
2018-10-09T23:39:06.431Z,101862.62
2018-10-09T23:41:33.069Z,101857.08
2018-10-09T23:43:59.703Z,101865.13
2018-10-09T23:46:26.352Z,101863.56
2018-10-09T23:48:53.820Z,101857.98
2018-10-09T23:51:20.477Z,101853.53
2018-10-09T23:53:47.134Z,101851.28
2018-10-09T23:56:13.852Z,101860.43
2018-10-09T23:58:40.504Z,101856.33
